Time;durP1;ratioP1;P1;durP2;ratioP2;P2;SDS_P1;SDS_P2;PMS_P1;PMS_P2;Temp;Humidity;BMP_temperature;BMP_pressure;BME280_temperature;BME280_humidity;BME280_pressure;Samples;Min_cycle;Max_cycle;Signal;HPM_P1;HPM_P2
2023/03/31 00:01:48;;;;;;;5.75;3.53;;;17.70;64.00;;;;;;5054637;28;20033;-25
2023/03/31 00:04:14;;;;;;;5.78;3.30;;;17.60;64.00;;;;;;5054753;28;20025;-24
2023/03/31 00:06:41;;;;;;;5.13;3.28;;;17.70;64.10;;;;;;5054927;28;20174;-25
2023/03/31 00:09:10;;;;;;;6.68;3.58;;;17.60;64.00;;;;;;5054444;28;20041;-25
2023/03/31 00:11:36;;;;;;;6.22;3.58;;;17.70;64.00;;;;;;5054876;28;20033;-25
2023/03/31 00:14:05;;;;;;;5.35;3.42;;;17.70;64.00;;;;;;5054468;28;20033;-25
2023/03/31 00:16:33;;;;;;;5.45;3.28;;;17.70;64.00;;;;;;5054517;28;20036;-25
2023/03/31 00:19:00;;;;;;;5.18;3.45;;;17.60;64.00;;;;;;5054523;28;20120;-24
2023/03/31 00:21:35;;;;;;;5.65;3.33;;;17.60;64.00;;;;;;5054579;28;20036;-25
2023/03/31 00:24:11;;;;;;;4.82;3.13;;;17.60;64.00;;;;;;5053955;28;20025;-24
2023/03/31 00:26:37;;;;;;;5.93;3.33;;;17.60;64.00;;;;;;5054371;28;20017;-25
2023/03/31 00:29:06;;;;;;;5.28;3.30;;;17.60;64.00;;;;;;5054251;28;20028;-25
2023/03/31 00:31:32;;;;;;;5.63;3.30;;;17.60;64.00;;;;;;5054246;28;20029;-25
2023/03/31 00:33:58;;;;;;;3.30;2.85;;;17.60;64.00;;;;;;5054061;28;20025;-25
2023/03/31 00:36:28;;;;;;;6.10;3.25;;;17.60;64.00;;;;;;5054039;28;20040;-25
2023/03/31 00:38:59;;;;;;;6.80;3.30;;;17.60;64.00;;;;;;5054296;28;20017;-25
2023/03/31 00:41:26;;;;;;;5.05;3.15;;;17.60;64.00;;;;;;5054343;28;20062;-24
2023/03/31 00:44:07;;;;;;;5.45;3.58;;;17.60;64.00;;;;;;5053755;28;20017;-24
2023/03/31 00:46:56;;;;;;;4.63;3.10;;;17.60;64.00;;;;;;5053953;28;20095;-25
2023/03/31 00:49:25;;;;;;;4.25;3.00;;;17.60;64.00;;;;;;5054187;28;20040;-24
2023/03/31 00:51:54;;;;;;;6.78;3.28;;;17.60;64.00;;;;;;5053604;28;20064;-25
2023/03/31 00:54:22;;;;;;;7.40;3.28;;;17.60;64.00;;;;;;5053797;28;20052;-25
2023/03/31 00:56:54;;;;;;;5.07;3.15;;;17.60;64.00;;;;;;5053921;28;20377;-25
2023/03/31 00:59:26;;;;;;;5.38;3.20;;;17.60;64.00;;;;;;5054101;28;20029;-25
2023/03/31 01:01:53;;;;;;;6.20;3.20;;;17.60;64.00;;;;;;5054158;28;20044;-24
2023/03/31 01:04:21;;;;;;;4.72;3.00;;;17.60;64.00;;;;;;5053623;28;20469;-25
2023/03/31 01:07:08;;;;;;;4.45;3.10;;;17.60;64.00;;;;;;5053470;28;20579;-26
2023/03/31 01:09:34;;;;;;;4.25;2.88;;;17.60;64.00;;;;;;5053382;28;20094;-25
2023/03/31 01:12:06;;;;;;;3.53;2.75;;;17.60;64.00;;;;;;5053352;28;20052;-24
2023/03/31 01:14:33;;;;;;;3.55;2.78;;;17.60;64.00;;;;;;5053666;28;20452;-24
2023/03/31 01:16:58;;;;;;;4.32;2.75;;;17.60;64.10;;;;;;5053805;28;20029;-25
2023/03/31 01:19:58;;;;;;;3.20;2.78;;;17.50;64.10;;;;;;5053387;28;20070;-25
2023/03/31 01:22:46;;;;;;;4.20;2.88;;;17.60;64.10;;;;;;5053236;28;20025;-25
2023/03/31 01:25:31;;;;;;;5.85;3.38;;;17.60;64.10;;;;;;5053506;28;20029;-24
2023/03/31 01:28:53;;;;;;;4.68;3.17;;;17.50;64.10;;;;;;5053305;28;20086;-25
2023/03/31 01:31:31;;;;;;;4.35;2.80;;;17.50;64.10;;;;;;5011667;28;20030;-25
2023/03/31 01:34:27;;;;;;;5.13;3.00;;;17.50;64.00;;;;;;5011249;28;20029;-25
2023/03/31 01:37:17;;;;;;;3.85;2.80;;;17.50;64.00;;;;;;5010926;28;20552;-24
2023/03/31 01:40:01;;;;;;;5.00;3.05;;;17.60;64.00;;;;;;5011196;28;20065;-26
2023/03/31 01:42:33;;;;;;;4.20;2.78;;;17.50;64.00;;;;;;5011323;28;20037;-25
2023/03/31 01:45:11;;;;;;;5.07;3.10;;;17.50;64.00;;;;;;5011396;28;20076;-24
2023/03/31 01:47:50;;;;;;;4.20;2.95;;;17.50;64.00;;;;;;5011304;28;20045;-23
2023/03/31 01:50:31;;;;;;;4.22;3.13;;;17.50;64.00;;;;;;5011219;28;20493;-23
2023/03/31 01:53:15;;;;;;;4.00;2.78;;;17.50;64.00;;;;;;5011341;28;20069;-24
2023/03/31 01:56:12;;;;;;;3.90;2.95;;;17.50;64.10;;;;;;5011235;28;20088;-23
2023/03/31 01:58:55;;;;;;;5.47;3.00;;;17.50;64.20;;;;;;5006810;28;20429;-25
2023/03/31 02:01:56;;;;;;;3.70;2.85;;;17.50;64.10;;;;;;5024958;28;20067;-23
2023/03/31 02:04:32;;;;;;;3.90;2.83;;;17.50;64.20;;;;;;4995012;28;20132;-26
2023/03/31 02:07:06;;;;;;;3.53;2.78;;;17.50;64.10;;;;;;5011091;28;20025;-24
2023/03/31 02:09:37;;;;;;;4.05;3.05;;;17.50;64.10;;;;;;5010893;28;20049;-25
2023/03/31 02:12:07;;;;;;;4.63;2.80;;;17.50;64.10;;;;;;5011056;28;20057;-25
2023/03/31 02:14:35;;;;;;;5.15;3.10;;;17.50;64.10;;;;;;5011024;28;20072;-24
2023/03/31 02:17:03;;;;;;;4.03;3.08;;;17.50;64.10;;;;;;5010949;28;20030;-25
2023/03/31 02:19:34;;;;;;;5.05;3.40;;;17.50;64.10;;;;;;4994600;28;20018;-25
2023/03/31 02:22:03;;;;;;;5.45;3.13;;;17.50;64.10;;;;;;5010735;28;20030;-25
2023/03/31 02:24:32;;;;;;;4.35;3.10;;;17.50;64.10;;;;;;5010946;28;20088;-25
2023/03/31 02:27:10;;;;;;;4.15;2.85;;;17.50;64.10;;;;;;5010940;28;20128;-24
2023/03/31 02:29:36;;;;;;;3.75;2.78;;;17.50;64.10;;;;;;5010937;28;20026;-25
2023/03/31 02:32:14;;;;;;;3.78;2.80;;;17.50;64.10;;;;;;5010875;28;20061;-24
2023/03/31 02:34:40;;;;;;;5.05;2.70;;;17.50;64.10;;;;;;5010902;28;20048;-26
2023/03/31 02:37:07;;;;;;;3.28;2.55;;;17.50;64.10;;;;;;5010913;28;20033;-25
2023/03/31 02:39:35;;;;;;;3.97;2.90;;;17.50;64.10;;;;;;5012899;28;20026;-23
2023/03/31 02:42:06;;;;;;;5.13;3.35;;;17.50;64.10;;;;;;5052580;28;20057;-24
2023/03/31 02:44:39;;;;;;;4.55;3.30;;;17.50;64.10;;;;;;5052497;28;20037;-25
2023/03/31 02:47:09;;;;;;;4.63;2.97;;;17.40;64.10;;;;;;5053200;28;20025;-25
2023/03/31 02:49:38;;;;;;;4.15;2.90;;;17.50;64.10;;;;;;5056075;28;20565;-25
2023/03/31 02:52:22;;;;;;;4.82;3.15;;;17.50;64.10;;;;;;5056136;28;20536;-25
2023/03/31 02:55:26;;;;;;;4.85;3.00;;;17.50;64.00;;;;;;5056218;28;20037;-26
2023/03/31 02:58:05;;;;;;;3.88;3.00;;;17.40;64.00;;;;;;5055805;28;20063;-25
2023/03/31 03:01:03;;;;;;;4.28;2.83;;;17.50;64.10;;;;;;5056280;28;20029;-25
2023/03/31 03:03:45;;;;;;;4.22;3.00;;;17.40;64.00;;;;;;5014161;28;20026;-26
2023/03/31 03:06:26;;;;;;;4.43;2.88;;;17.40;64.00;;;;;;5014080;28;20018;-25
2023/03/31 03:09:43;;;;;;;5.07;3.40;;;17.40;64.00;;;;;;5013853;28;20058;-25
2023/03/31 03:12:27;;;;;;;4.85;3.08;;;17.40;64.00;;;;;;4955689;29;20144;-25
2023/03/31 03:15:06;;;;;;;4.38;3.00;;;17.40;64.00;;;;;;4955998;29;20027;-25
2023/03/31 03:17:38;;;;;;;3.67;2.83;;;17.40;64.00;;;;;;4955767;29;20031;-25
2023/03/31 03:20:09;;;;;;;4.18;2.83;;;17.40;64.00;;;;;;4955447;29;20035;-25
2023/03/31 03:22:36;;;;;;;2.60;2.40;;;17.40;64.10;;;;;;4955408;29;20047;-24
2023/03/31 03:25:04;;;;;;;3.58;2.78;;;17.40;64.10;;;;;;4955358;29;20504;-25
2023/03/31 03:27:31;;;;;;;4.97;2.92;;;17.40;64.10;;;;;;4955378;29;20070;-25
2023/03/31 03:29:57;;;;;;;3.72;2.78;;;17.40;64.10;;;;;;4955134;29;20159;-25
2023/03/31 03:32:23;;;;;;;3.47;2.67;;;17.40;64.10;;;;;;4955743;29;20094;-24
2023/03/31 03:34:49;;;;;;;3.90;2.85;;;17.40;64.10;;;;;;4955237;29;20031;-25
2023/03/31 03:37:18;;;;;;;3.95;2.70;;;17.40;64.10;;;;;;4954396;29;20035;-24
2023/03/31 03:39:44;;;;;;;4.85;3.20;;;17.40;64.10;;;;;;4980889;28;20038;-25
2023/03/31 03:42:09;;;;;;;3.97;2.88;;;17.40;64.10;;;;;;5013492;28;20040;-25
2023/03/31 03:44:35;;;;;;;4.38;2.90;;;17.40;64.10;;;;;;5013541;28;20506;-25
2023/03/31 03:47:01;;;;;;;3.42;2.70;;;17.40;64.10;;;;;;5027293;28;20116;-25
2023/03/31 03:49:27;;;;;;;3.33;2.75;;;17.40;64.10;;;;;;5055234;28;20021;-25
2023/03/31 03:51:53;;;;;;;4.28;2.83;;;17.40;64.10;;;;;;5054722;28;20032;-25
2023/03/31 03:54:19;;;;;;;5.60;3.10;;;17.40;64.10;;;;;;5055246;28;20021;-25
2023/03/31 03:56:45;;;;;;;4.18;3.08;;;17.40;64.10;;;;;;5054886;28;20388;-25
2023/03/31 03:59:14;;;;;;;4.88;3.10;;;17.40;64.10;;;;;;5053980;28;20029;-25
2023/03/31 04:01:40;;;;;;;3.80;2.75;;;17.40;64.10;;;;;;5054990;28;20025;-24
2023/03/31 04:04:08;;;;;;;4.05;2.88;;;17.40;64.10;;;;;;5054543;28;20504;-24
2023/03/31 04:06:34;;;;;;;3.78;2.72;;;17.40;64.10;;;;;;5054722;28;20516;-25
2023/03/31 04:09:00;;;;;;;3.25;2.58;;;17.40;64.10;;;;;;5054498;28;20094;-25
2023/03/31 04:11:27;;;;;;;4.15;3.08;;;17.40;64.10;;;;;;5054622;28;20040;-24
2023/03/31 04:13:52;;;;;;;4.40;2.85;;;17.40;64.10;;;;;;5054672;28;20071;-25
2023/03/31 04:16:18;;;;;;;4.10;2.80;;;17.40;64.10;;;;;;5054877;28;20024;-25
2023/03/31 04:18:44;;;;;;;3.55;3.05;;;17.40;64.10;;;;;;5055178;28;20021;-25
2023/03/31 04:21:14;;;;;;;3.75;2.78;;;17.40;64.10;;;;;;5054564;28;20439;-25
2023/03/31 04:23:47;;;;;;;3.55;2.60;;;17.40;64.10;;;;;;5054437;28;20366;-25
2023/03/31 04:26:15;;;;;;;4.07;3.07;;;17.40;64.10;;;;;;5054469;28;20025;-25
2023/03/31 04:28:49;;;;;;;4.40;2.65;;;17.40;64.10;;;;;;5054327;28;20493;-24
2023/03/31 04:31:24;;;;;;;3.10;2.40;;;17.40;64.10;;;;;;5054235;28;20040;-24
2023/03/31 04:33:53;;;;;;;4.43;2.80;;;17.40;64.10;;;;;;5054275;28;20040;-24
2023/03/31 04:36:20;;;;;;;3.70;3.03;;;17.40;64.10;;;;;;5054106;28;20021;-23
2023/03/31 04:38:53;;;;;;;3.42;2.90;;;17.40;64.10;;;;;;5054668;28;20033;-25
2023/03/31 04:41:21;;;;;;;5.30;2.92;;;17.40;64.10;;;;;;5054449;28;20037;-25
2023/03/31 04:43:47;;;;;;;4.20;3.03;;;17.40;64.10;;;;;;5053858;28;20086;-25
2023/03/31 04:46:15;;;;;;;4.63;2.95;;;17.40;64.10;;;;;;5054250;28;20035;-24
2023/03/31 04:48:41;;;;;;;3.92;2.92;;;17.40;64.10;;;;;;5053884;28;20055;-24
2023/03/31 04:51:08;;;;;;;5.20;3.22;;;17.40;64.10;;;;;;5054048;28;20067;-24
2023/03/31 04:53:34;;;;;;;5.75;3.10;;;17.40;64.10;;;;;;5053832;28;20037;-24
2023/03/31 04:56:00;;;;;;;3.25;2.70;;;17.40;64.10;;;;;;5053734;28;20028;-23
2023/03/31 04:58:26;;;;;;;3.85;2.65;;;17.30;64.10;;;;;;5054041;28;20032;-23
2023/03/31 05:00:52;;;;;;;3.22;2.33;;;17.40;64.10;;;;;;5053651;28;20021;-23
2023/03/31 05:03:20;;;;;;;4.00;2.90;;;17.30;64.10;;;;;;5053809;28;20388;-22
2023/03/31 05:05:46;;;;;;;3.67;2.63;;;17.40;64.20;;;;;;5053394;28;20029;-24
2023/03/31 05:08:11;;;;;;;3.13;2.65;;;17.30;64.20;;;;;;5053433;28;20045;-23
2023/03/31 05:10:40;;;;;;;3.42;2.75;;;17.40;64.20;;;;;;5053307;28;20037;-23
2023/03/31 05:13:07;;;;;;;2.90;2.60;;;17.40;64.20;;;;;;5053738;28;20424;-24
2023/03/31 05:15:37;;;;;;;3.50;2.60;;;17.30;64.20;;;;;;5053440;28;20030;-24
2023/03/31 05:18:03;;;;;;;3.88;2.83;;;17.40;64.20;;;;;;5053523;28;20075;-24
2023/03/31 05:20:29;;;;;;;4.18;2.67;;;17.30;64.20;;;;;;5053389;28;20428;-25
2023/03/31 05:22:55;;;;;;;4.45;2.90;;;17.30;64.20;;;;;;5053505;28;20055;-25
2023/03/31 05:25:22;;;;;;;3.60;2.85;;;17.30;64.20;;;;;;5053496;28;20454;-24
2023/03/31 05:27:49;;;;;;;4.30;3.10;;;17.40;64.20;;;;;;5053424;28;20033;-25
2023/03/31 05:30:17;;;;;;;4.03;2.85;;;17.30;64.20;;;;;;5053442;28;20025;-23
2023/03/31 05:32:43;;;;;;;3.25;2.63;;;17.40;64.20;;;;;;5053073;28;20047;-24
2023/03/31 05:35:09;;;;;;;3.63;2.60;;;17.30;64.20;;;;;;5053421;28;20033;-24
2023/03/31 05:37:35;;;;;;;4.15;2.90;;;17.40;64.20;;;;;;5051781;28;20063;-25
2023/03/31 05:40:03;;;;;;;4.13;3.00;;;17.40;64.20;;;;;;5053183;28;20017;-25
2023/03/31 05:42:30;;;;;;;5.05;2.95;;;17.30;64.30;;;;;;5053082;28;20025;-25
2023/03/31 05:44:56;;;;;;;4.28;2.92;;;17.40;64.30;;;;;;5053075;28;20627;-24
2023/03/31 05:47:22;;;;;;;4.65;3.10;;;17.40;64.30;;;;;;5052969;28;20082;-24
2023/03/31 05:49:48;;;;;;;4.97;3.00;;;17.40;64.50;;;;;;5052826;28;20107;-25
2023/03/31 05:52:14;;;;;;;5.32;2.92;;;17.40;64.60;;;;;;5053106;28;20055;-25
2023/03/31 05:54:43;;;;;;;5.43;3.15;;;17.30;64.70;;;;;;5052924;28;20408;-24
2023/03/31 05:57:09;;;;;;;4.50;2.83;;;17.30;64.80;;;;;;5051738;28;20036;-25
2023/03/31 05:59:35;;;;;;;4.25;2.97;;;17.30;64.80;;;;;;5053145;28;20029;-25
2023/03/31 06:02:04;;;;;;;3.50;2.75;;;17.40;64.90;;;;;;5052561;28;20051;-24
2023/03/31 06:04:31;;;;;;;4.90;3.42;;;17.30;64.80;;;;;;5052818;28;20065;-24
2023/03/31 06:06:57;;;;;;;4.80;2.95;;;17.30;64.90;;;;;;5052768;28;20036;-24
2023/03/31 06:09:24;;;;;;;5.00;3.22;;;17.30;64.90;;;;;;5051359;28;20052;-25
2023/03/31 06:11:50;;;;;;;4.57;2.95;;;17.40;65.00;;;;;;5052807;28;20025;-24
2023/03/31 06:14:16;;;;;;;4.07;2.85;;;17.40;65.00;;;;;;5053048;28;20384;-24
2023/03/31 06:16:42;;;;;;;4.40;3.10;;;17.40;65.00;;;;;;5052737;28;20065;-24
2023/03/31 06:19:08;;;;;;;3.67;2.80;;;17.40;65.00;;;;;;5052636;28;20506;-25
2023/03/31 06:21:33;;;;;;;4.50;3.55;;;17.40;65.00;;;;;;5052928;28;20021;-25
2023/03/31 06:24:00;;;;;;;5.50;3.30;;;17.40;65.00;;;;;;5056356;28;20025;-24
2023/03/31 06:26:26;;;;;;;4.43;3.35;;;17.40;65.00;;;;;;5056585;28;20036;-24
2023/03/31 06:28:53;;;;;;;6.20;3.53;;;17.40;65.00;;;;;;5056817;28;20380;-24
2023/03/31 06:31:22;;;;;;;5.38;3.50;;;17.40;65.00;;;;;;5056463;28;20112;-25
2023/03/31 06:33:48;;;;;;;5.57;3.80;;;17.40;65.00;;;;;;5056309;28;20499;-24
2023/03/31 06:36:17;;;;;;;5.82;3.90;;;17.40;64.90;;;;;;5056459;28;20029;-25
2023/03/31 06:38:43;;;;;;;5.70;3.85;;;17.40;64.90;;;;;;5056740;28;20021;-25
2023/03/31 06:41:11;;;;;;;7.43;3.92;;;17.40;64.90;;;;;;5056584;28;20400;-24
2023/03/31 06:43:37;;;;;;;7.03;4.07;;;17.40;64.90;;;;;;5056348;28;20029;-25
2023/03/31 06:46:04;;;;;;;6.65;4.10;;;17.40;64.90;;;;;;5056048;28;20025;-24
2023/03/31 06:48:30;;;;;;;7.18;4.43;;;17.40;64.90;;;;;;5055021;28;20060;-23
2023/03/31 06:50:59;;;;;;;6.45;4.03;;;17.40;64.80;;;;;;5056378;28;20080;-25
2023/03/31 06:53:28;;;;;;;6.10;4.35;;;17.40;64.80;;;;;;5056445;28;20021;-25
2023/03/31 06:55:53;;;;;;;8.55;4.75;;;17.40;64.80;;;;;;5055868;28;20024;-23
2023/03/31 06:58:19;;;;;;;7.82;4.38;;;17.40;64.80;;;;;;5056408;28;20025;-24
2023/03/31 07:00:45;;;;;;;7.70;4.60;;;17.40;64.80;;;;;;5056253;28;20029;-24
2023/03/31 07:03:12;;;;;;;8.10;4.50;;;17.40;64.80;;;;;;5055973;28;20423;-24
2023/03/31 07:05:38;;;;;;;9.25;5.38;;;17.40;64.70;;;;;;5055887;28;20032;-23
2023/03/31 07:08:05;;;;;;;8.13;5.20;;;17.40;64.70;;;;;;5055651;28;20053;-24
2023/03/31 07:10:31;;;;;;;8.35;5.43;;;17.40;64.70;;;;;;5056325;28;20116;-24
2023/03/31 07:12:57;;;;;;;6.78;4.55;;;17.40;64.70;;;;;;5055769;28;20488;-24
2023/03/31 07:15:24;;;;;;;8.32;5.00;;;17.40;64.70;;;;;;5056097;28;20029;-25
2023/03/31 07:17:52;;;;;;;8.30;5.28;;;17.30;64.60;;;;;;5055593;28;20029;-25
2023/03/31 07:20:19;;;;;;;9.50;5.18;;;17.40;64.60;;;;;;5055613;28;20021;-24
2023/03/31 07:22:47;;;;;;;8.07;5.13;;;17.40;64.60;;;;;;5055995;28;20079;-24
2023/03/31 07:25:15;;;;;;;9.07;5.38;;;17.40;64.60;;;;;;5055523;28;20171;-25
2023/03/31 07:27:41;;;;;;;8.27;5.40;;;17.40;64.50;;;;;;5055606;28;20056;-25
2023/03/31 07:30:17;;;;;;;7.90;5.72;;;17.30;64.50;;;;;;5055474;28;20037;-25
2023/03/31 07:32:46;;;;;;;7.28;5.13;;;17.40;64.40;;;;;;5055453;28;20124;-25
2023/03/31 07:35:12;;;;;;;8.55;5.18;;;17.40;64.50;;;;;;5054491;28;20093;-25
2023/03/31 07:37:40;;;;;;;7.75;5.90;;;17.40;64.40;;;;;;5055006;28;20036;-24
2023/03/31 07:40:08;;;;;;;11.30;5.80;;;17.40;64.50;;;;;;5055396;28;20036;-25
2023/03/31 07:42:34;;;;;;;9.48;5.32;;;17.40;64.50;;;;;;5055238;28;20036;-25
2023/03/31 07:45:01;;;;;;;8.50;5.28;;;17.40;64.50;;;;;;5055188;28;20477;-24
2023/03/31 07:47:27;;;;;;;8.32;5.15;;;17.30;64.50;;;;;;5055135;28;20036;-24
2023/03/31 07:49:53;;;;;;;8.40;5.28;;;17.40;64.60;;;;;;5054909;28;20075;-25
2023/03/31 07:52:19;;;;;;;11.98;5.70;;;17.40;64.50;;;;;;5055270;28;20029;-24
2023/03/31 07:54:45;;;;;;;9.20;5.40;;;17.40;64.60;;;;;;5055007;28;20028;-25
2023/03/31 07:57:12;;;;;;;8.68;5.60;;;17.40;64.60;;;;;;5054952;28;20070;-25
2023/03/31 07:59:39;;;;;;;10.63;6.40;;;17.40;64.60;;;;;;5055259;28;20029;-25
2023/03/31 08:02:05;;;;;;;9.88;5.93;;;17.40;64.50;;;;;;5054758;28;20025;-26
2023/03/31 08:04:31;;;;;;;9.65;5.80;;;17.40;64.50;;;;;;5054860;28;20075;-24
2023/03/31 08:06:57;;;;;;;9.25;5.75;;;17.40;64.50;;;;;;5055028;28;20033;-25
2023/03/31 08:09:23;;;;;;;9.32;6.15;;;17.40;64.50;;;;;;5054465;28;20049;-24
2023/03/31 08:11:49;;;;;;;11.45;6.03;;;17.40;64.50;;;;;;5054792;28;20127;-24
2023/03/31 08:14:15;;;;;;;8.68;5.22;;;17.40;64.50;;;;;;5054688;28;20025;-25
2023/03/31 08:16:41;;;;;;;7.88;5.40;;;17.40;64.50;;;;;;5054938;28;20027;-25
2023/03/31 08:19:07;;;;;;;8.00;5.20;;;17.40;64.40;;;;;;5054816;28;20033;-26
2023/03/31 08:21:33;;;;;;;8.07;5.25;;;17.40;64.40;;;;;;5054478;28;20472;-24
2023/03/31 08:23:59;;;;;;;11.00;6.15;;;17.40;64.50;;;;;;5054337;28;20029;-25
2023/03/31 08:26:25;;;;;;;8.95;5.55;;;17.40;64.50;;;;;;5054439;28;20029;-24
2023/03/31 08:28:52;;;;;;;11.85;6.10;;;17.40;64.40;;;;;;5054465;28;20032;-25
2023/03/31 08:31:20;;;;;;;9.52;5.30;;;17.40;64.40;;;;;;5054510;28;20056;-26
2023/03/31 08:33:46;;;;;;;9.88;5.78;;;17.40;64.40;;;;;;5054056;28;20508;-25
2023/03/31 08:36:13;;;;;;;7.18;5.00;;;17.40;64.40;;;;;;5054137;28;20566;-25
2023/03/31 08:38:41;;;;;;;7.90;5.20;;;17.40;64.40;;;;;;5052974;28;20115;-25
2023/03/31 08:41:32;;;;;;;8.57;5.40;;;17.40;64.40;;;;;;5054394;28;20025;-25
2023/03/31 08:44:02;;;;;;;8.15;5.15;;;17.40;64.40;;;;;;5053909;28;20025;-25
2023/03/31 08:46:32;;;;;;;9.15;5.57;;;17.40;64.40;;;;;;5053592;28;20028;-24
2023/03/31 08:48:59;;;;;;;9.82;5.78;;;17.40;64.30;;;;;;5054326;28;20033;-24
2023/03/31 08:51:40;;;;;;;8.70;5.60;;;17.40;64.30;;;;;;5053697;28;20060;-25
2023/03/31 08:54:49;;;;;;;11.07;5.68;;;17.40;64.30;;;;;;5053688;28;20374;-25
2023/03/31 08:57:25;;;;;;;10.23;5.65;;;17.40;64.30;;;;;;5012146;28;20482;-25
2023/03/31 08:59:51;;;;;;;9.05;5.80;;;17.40;64.30;;;;;;5011951;28;20046;-23
2023/03/31 09:02:17;;;;;;;10.35;5.95;;;17.40;64.20;;;;;;5011968;28;20052;-24
2023/03/31 09:05:07;;;;;;;11.52;6.10;;;17.40;64.20;;;;;;5012067;28;20121;-25
2023/03/31 09:07:49;;;;;;;9.77;5.50;;;17.40;64.20;;;;;;5011821;28;20433;-24
2023/03/31 09:10:36;;;;;;;10.70;6.10;;;17.40;64.20;;;;;;5011797;28;20184;-26
2023/03/31 09:13:05;;;;;;;8.07;5.80;;;17.40;64.20;;;;;;5011873;28;20172;-25
2023/03/31 09:15:51;;;;;;;9.75;6.30;;;17.40;64.20;;;;;;5011867;28;20037;-23
2023/03/31 09:18:28;;;;;;;8.38;5.43;;;17.40;64.10;;;;;;5011783;28;20033;-25
2023/03/31 09:21:12;;;;;;;7.55;5.10;;;17.40;64.10;;;;;;5011894;28;20047;-25
2023/03/31 09:23:46;;;;;;;7.32;5.07;;;17.40;64.10;;;;;;5011704;28;20036;-24
2023/03/31 09:26:23;;;;;;;8.88;5.63;;;17.40;64.10;;;;;;5011703;28;20073;-25
2023/03/31 09:28:52;;;;;;;9.95;6.05;;;17.40;64.10;;;;;;5012038;28;20363;-25
2023/03/31 09:31:21;;;;;;;8.82;5.70;;;17.40;64.10;;;;;;5011490;28;20030;-24
2023/03/31 09:33:50;;;;;;;9.02;6.50;;;17.40;64.10;;;;;;5045273;28;20039;-25
2023/03/31 09:36:18;;;;;;;10.70;5.90;;;17.40;64.00;;;;;;5053118;28;20032;-25
2023/03/31 09:38:46;;;;;;;8.93;5.68;;;17.40;64.00;;;;;;5053194;28;20021;-25
2023/03/31 09:41:15;;;;;;;10.73;7.07;;;17.40;64.00;;;;;;5053322;28;20086;-25
2023/03/31 09:43:42;;;;;;;10.48;6.68;;;17.40;64.00;;;;;;5053424;28;20090;-25
2023/03/31 09:46:23;;;;;;;11.23;6.75;;;17.40;63.90;;;;;;5053069;28;20366;-25
2023/03/31 09:49:04;;;;;;;10.82;6.88;;;17.40;63.90;;;;;;5053398;28;20021;-25
2023/03/31 09:51:36;;;;;;;8.90;6.45;;;17.50;63.80;;;;;;5053175;28;20086;-25
2023/03/31 09:54:17;;;;;;;11.90;7.55;;;17.40;63.80;;;;;;5052793;28;20488;-25
2023/03/31 09:56:47;;;;;;;10.48;6.55;;;17.40;63.80;;;;;;5052549;28;20063;-25
2023/03/31 09:59:16;;;;;;;10.57;6.72;;;17.40;63.80;;;;;;5053156;28;20427;-25
2023/03/31 10:01:48;;;;;;;10.93;7.00;;;17.50;63.80;;;;;;5052925;28;20040;-24
2023/03/31 10:04:23;;;;;;;8.80;5.97;;;17.40;63.80;;;;;;5052921;28;20033;-25
2023/03/31 10:06:51;;;;;;;11.30;6.85;;;17.50;63.90;;;;;;5052792;28;20037;-25
2023/03/31 10:09:22;;;;;;;11.27;6.68;;;17.40;63.90;;;;;;5052539;28;20136;-26
2023/03/31 10:11:57;;;;;;;9.55;6.50;;;17.50;63.90;;;;;;5052930;28;20017;-25
2023/03/31 10:14:26;;;;;;;11.18;6.30;;;17.50;63.90;;;;;;5053159;28;20021;-24
2023/03/31 10:17:01;;;;;;;10.20;6.70;;;17.50;63.90;;;;;;5053178;28;20029;-24
2023/03/31 10:19:30;;;;;;;10.95;7.40;;;17.50;63.90;;;;;;5053030;28;20025;-25
2023/03/31 10:22:05;;;;;;;9.43;6.78;;;17.40;63.90;;;;;;5052367;28;20029;-25
2023/03/31 10:24:45;;;;;;;10.50;7.45;;;17.40;63.90;;;;;;5053076;28;20028;-25
2023/03/31 10:27:21;;;;;;;10.85;7.13;;;17.50;63.90;;;;;;5053013;28;20021;-25
2023/03/31 10:29:52;;;;;;;13.10;7.40;;;17.50;63.90;;;;;;5052502;28;20044;-25
2023/03/31 10:32:30;;;;;;;12.15;7.70;;;17.40;63.90;;;;;;5053000;28;20415;-24
2023/03/31 10:34:57;;;;;;;10.70;7.50;;;17.50;63.90;;;;;;5052810;28;20112;-25
2023/03/31 10:37:27;;;;;;;11.23;7.70;;;17.50;63.90;;;;;;5052820;28;20033;-26
2023/03/31 10:40:05;;;;;;;10.18;6.20;;;17.50;63.90;;;;;;5052699;28;20099;-25
2023/03/31 10:42:31;;;;;;;8.27;6.10;;;17.50;64.00;;;;;;5052523;28;20029;-25
2023/03/31 10:45:25;;;;;;;11.00;6.40;;;17.50;64.20;;;;;;5052558;28;20025;-25
2023/03/31 10:47:57;;;;;;;9.20;6.47;;;17.50;64.20;;;;;;5052455;28;20056;-25
2023/03/31 10:50:34;;;;;;;9.77;7.00;;;17.50;64.20;;;;;;5052380;28;20033;-24
2023/03/31 10:53:12;;;;;;;8.23;6.28;;;17.50;64.20;;;;;;5052340;28;20061;-25
2023/03/31 10:56:09;;;;;;;8.95;6.78;;;17.50;64.30;;;;;;5052480;28;20029;-25
2023/03/31 10:59:13;;;;;;;9.75;6.97;;;17.50;64.30;;;;;;5031197;28;20025;-24
2023/03/31 11:01:53;;;;;;;9.88;6.68;;;17.50;64.50;;;;;;5052352;28;20416;-25
2023/03/31 11:04:28;;;;;;;8.43;6.07;;;17.50;64.50;;;;;;5052368;28;20496;-25
2023/03/31 11:07:42;;;;;;;9.15;5.97;;;17.50;64.60;;;;;;5052688;28;20040;-25
2023/03/31 11:10:26;;;;;;;8.43;5.80;;;17.50;64.70;;;;;;5014233;28;20050;-25
2023/03/31 11:13:10;;;;;;;8.65;6.20;;;17.50;64.80;;;;;;5014063;28;20034;-24
2023/03/31 11:15:56;;;;;;;8.45;6.18;;;17.60;64.70;;;;;;5014003;28;20181;-24
2023/03/31 11:18:31;;;;;;;8.82;5.68;;;17.60;64.70;;;;;;5014036;28;20041;-24
2023/03/31 11:21:02;;;;;;;8.45;5.68;;;17.50;64.70;;;;;;5013912;28;20152;-23
2023/03/31 11:23:40;;;;;;;9.98;6.38;;;17.60;64.70;;;;;;5013667;28;20038;-23
2023/03/31 11:26:18;;;;;;;8.45;5.72;;;17.50;64.80;;;;;;5013607;28;20026;-23
2023/03/31 11:29:01;;;;;;;8.10;5.80;;;17.60;64.80;;;;;;5013779;28;20038;-24
2023/03/31 11:31:47;;;;;;;8.45;6.10;;;17.50;64.90;;;;;;5013684;28;20592;-25
2023/03/31 11:34:51;;;;;;;9.43;6.30;;;17.60;64.90;;;;;;5014123;28;20414;-25
2023/03/31 11:37:30;;;;;;;9.90;6.68;;;17.60;65.00;;;;;;5013450;28;20034;-23
2023/03/31 11:40:26;;;;;;;10.77;6.68;;;17.60;64.90;;;;;;5013411;28;20062;-24
2023/03/31 11:43:22;;;;;;;12.13;7.75;;;17.60;64.90;;;;;;5013495;28;20433;-25
2023/03/31 11:46:12;;;;;;;9.05;6.60;;;17.60;64.80;;;;;;5021474;28;20072;-25
2023/03/31 11:49:04;;;;;;;10.57;7.15;;;17.60;64.70;;;;;;5055498;28;20033;-25
2023/03/31 11:52:00;;;;;;;10.98;6.97;;;17.60;64.60;;;;;;5052735;28;20095;-25
2023/03/31 11:54:34;;;;;;;9.85;5.85;;;17.60;64.60;;;;;;5013361;28;20049;-23
2023/03/31 11:57:09;;;;;;;9.27;6.05;;;17.60;64.60;;;;;;5013212;28;20112;-25
2023/03/31 11:59:38;;;;;;;9.18;5.88;;;17.60;64.60;;;;;;4997029;28;20127;-25
2023/03/31 12:02:18;;;;;;;9.52;6.15;;;17.70;64.70;;;;;;5012913;28;20022;-24
2023/03/31 12:04:50;;;;;;;9.25;5.90;;;17.70;64.70;;;;;;5013499;28;20038;-24
2023/03/31 12:07:36;;;;;;;8.20;5.93;;;17.70;64.70;;;;;;5013189;28;20033;-25
2023/03/31 12:10:16;;;;;;;9.88;5.68;;;17.70;64.70;;;;;;5012729;28;20125;-24
2023/03/31 12:12:48;;;;;;;9.65;7.05;;;17.70;64.70;;;;;;5013098;28;20194;-24
2023/03/31 12:15:45;;;;;;;8.27;5.90;;;17.70;64.60;;;;;;5012928;28;20045;-25
2023/03/31 12:18:28;;;;;;;8.82;6.30;;;17.80;64.70;;;;;;4954563;29;20036;-24
2023/03/31 12:21:02;;;;;;;8.00;5.75;;;17.80;64.60;;;;;;4953733;28;20408;-24
2023/03/31 12:23:32;;;;;;;8.57;6.28;;;17.80;64.60;;;;;;4954609;29;20488;-23
2023/03/31 12:26:20;;;;;;;11.32;6.28;;;17.80;64.50;;;;;;4954257;29;20439;-23
2023/03/31 12:28:46;;;;;;;9.23;6.57;;;17.80;64.50;;;;;;4938308;29;20039;-24
2023/03/31 12:31:20;;;;;;;10.35;6.80;;;17.80;64.50;;;;;;4984964;28;20038;-23
2023/03/31 12:34:01;;;;;;;9.57;5.95;;;17.80;64.40;;;;;;5012355;28;20041;-24
2023/03/31 12:37:12;;;;;;;9.45;6.03;;;17.80;64.40;;;;;;5012472;28;20030;-25
2023/03/31 12:39:49;;;;;;;8.85;6.07;;;17.80;64.50;;;;;;5003264;28;20030;-24
2023/03/31 12:42:43;;;;;;;11.32;6.75;;;17.80;64.50;;;;;;5012477;28;20160;-25
2023/03/31 12:45:28;;;;;;;10.40;6.95;;;17.80;64.40;;;;;;5012451;28;20037;-25
2023/03/31 12:48:02;;;;;;;9.85;6.05;;;17.90;64.30;;;;;;5012210;28;20171;-24
2023/03/31 12:51:10;;;;;;;10.43;6.60;;;17.80;64.30;;;;;;5011818;28;20037;-23
2023/03/31 12:53:51;;;;;;;8.45;5.80;;;17.90;64.30;;;;;;5007573;28;20034;-24
2023/03/31 12:56:17;;;;;;;9.73;5.97;;;17.80;64.30;;;;;;5054128;28;20128;-25
2023/03/31 12:58:44;;;;;;;10.07;6.00;;;17.80;64.40;;;;;;5053723;28;20214;-25
2023/03/31 13:01:20;;;;;;;9.20;5.78;;;17.80;64.40;;;;;;5053753;28;20032;-24
2023/03/31 13:04:10;;;;;;;8.75;6.20;;;17.80;64.40;;;;;;5053742;28;20033;-23
2023/03/31 13:06:36;;;;;;;11.68;5.88;;;17.80;64.40;;;;;;5053396;28;20025;-24
2023/03/31 13:09:26;;;;;;;10.10;5.70;;;17.80;64.40;;;;;;5053705;28;20124;-24
2023/03/31 13:11:52;;;;;;;9.88;6.47;;;17.80;64.40;;;;;;5053249;28;20123;-26
2023/03/31 13:14:30;;;;;;;11.05;6.75;;;17.80;64.30;;;;;;5053856;28;20032;-25
2023/03/31 13:17:24;;;;;;;8.82;5.82;;;17.80;64.30;;;;;;5053866;28;20036;-25